createdAt,value
2018-06-14T00:00:18.681Z,5.10
2018-06-14T00:02:45.528Z,5.50
2018-06-14T00:05:13.630Z,5.30
2018-06-14T00:07:42.430Z,5.10
2018-06-14T00:10:12.030Z,5.17
2018-06-14T00:12:40.165Z,5.20
2018-06-14T00:15:09.458Z,5.53
2018-06-14T00:17:37.829Z,5.17
2018-06-14T00:20:06.564Z,5.37
2018-06-14T00:22:35.002Z,6.22
2018-06-14T00:25:06.794Z,6.20
2018-06-14T00:27:37.962Z,5.23
2018-06-14T00:30:06.415Z,5.20
2018-06-14T00:32:34.469Z,5.43
2018-06-14T00:35:02.590Z,5.87
2018-06-14T00:37:31.011Z,5.03
2018-06-14T00:39:59.324Z,5.77
2018-06-14T00:42:27.679Z,6.10
2018-06-14T00:44:56.089Z,5.43
2018-06-14T00:47:24.136Z,5.73
2018-06-14T00:49:52.420Z,5.00
2018-06-14T00:52:20.549Z,5.70
2018-06-14T00:54:48.905Z,5.40
2018-06-14T00:57:30.959Z,6.33
2018-06-14T00:59:59.339Z,5.80
2018-06-14T01:02:28.040Z,5.97
2018-06-14T01:04:56.490Z,7.30
2018-06-14T01:07:24.895Z,7.00
2018-06-14T01:09:53.164Z,7.80
2018-06-14T01:12:21.558Z,6.73
2018-06-14T01:14:49.617Z,6.07
2018-06-14T01:17:18.352Z,6.60
2018-06-14T01:19:46.769Z,7.95
2018-06-14T01:22:15.187Z,7.13
2018-06-14T01:24:43.280Z,7.50
2018-06-14T01:27:12.344Z,6.73
2018-06-14T01:29:40.551Z,6.17
2018-06-14T01:32:09.310Z,6.97
2018-06-14T01:34:37.437Z,6.80
2018-06-14T01:37:07.251Z,6.87
2018-06-14T01:39:35.660Z,7.00
2018-06-14T01:42:04.380Z,6.30
2018-06-14T01:44:32.692Z,6.20
2018-06-14T01:47:01.003Z,6.27
2018-06-14T01:49:29.383Z,5.77
2018-06-14T01:51:57.757Z,7.03
2018-06-14T01:54:26.076Z,6.17
2018-06-14T01:56:54.588Z,7.75
2018-06-14T01:59:22.917Z,6.40
2018-06-14T02:02:30.526Z,7.20
2018-06-14T02:04:58.583Z,6.20
2018-06-14T02:07:26.915Z,6.23
2018-06-14T02:09:55.293Z,6.03
2018-06-14T02:12:23.606Z,6.60
2018-06-14T02:14:51.951Z,6.20
2018-06-14T02:17:20.353Z,7.00
2018-06-14T02:19:48.685Z,6.40
2018-06-14T02:22:17.041Z,6.50
2018-06-14T02:24:45.161Z,5.83
2018-06-14T02:27:13.449Z,6.17
2018-06-14T02:29:41.794Z,6.30
2018-06-14T02:32:10.278Z,6.40
2018-06-14T02:34:38.588Z,6.53
2018-06-14T02:37:06.948Z,6.50
2018-06-14T02:39:35.396Z,5.97
2018-06-14T02:42:03.712Z,7.33
2018-06-14T02:44:32.056Z,6.27
2018-06-14T02:47:00.225Z,6.77
2018-06-14T02:49:28.549Z,6.47
2018-06-14T02:51:56.896Z,6.63
2018-06-14T02:54:25.267Z,6.83
2018-06-14T02:56:53.614Z,6.37
2018-06-14T02:59:21.949Z,7.13
2018-06-14T03:01:50.315Z,6.33
2018-06-14T03:04:19.066Z,6.87
2018-06-14T03:06:47.411Z,7.07
2018-06-14T03:09:15.802Z,7.80
2018-06-14T03:11:44.116Z,6.43
2018-06-14T03:14:12.149Z,6.47
2018-06-14T03:16:40.539Z,6.50
2018-06-14T03:19:08.887Z,8.13
2018-06-14T03:21:37.193Z,8.13
2018-06-14T03:24:05.599Z,7.73
2018-06-14T03:26:33.644Z,8.40
2018-06-14T03:29:01.992Z,6.70
2018-06-14T03:31:30.420Z,7.17
2018-06-14T03:33:58.511Z,7.03
2018-06-14T03:36:26.620Z,6.60
2018-06-14T03:38:54.997Z,6.57
2018-06-14T03:41:23.336Z,8.37
2018-06-14T03:43:51.462Z,7.77
2018-06-14T03:46:19.899Z,6.90
2018-06-14T03:48:47.980Z,7.30
2018-06-14T03:51:16.309Z,7.23
2018-06-14T03:53:44.699Z,6.90
2018-06-14T03:56:12.988Z,7.00
2018-06-14T03:58:41.313Z,6.90
2018-06-14T04:01:09.733Z,6.73
2018-06-14T04:03:38.047Z,7.20
2018-06-14T04:06:06.402Z,6.80
2018-06-14T04:08:34.724Z,6.20
2018-06-14T04:11:03.038Z,7.37
2018-06-14T04:13:31.414Z,6.27
2018-06-14T04:16:00.077Z,6.70
2018-06-14T04:18:28.526Z,8.38
2018-06-14T04:20:56.843Z,6.47
2018-06-14T04:23:25.213Z,8.13
2018-06-14T04:25:53.542Z,7.00
2018-06-14T04:28:21.589Z,6.90
2018-06-14T04:30:50.006Z,7.03
2018-06-14T04:33:18.117Z,8.40
2018-06-14T04:35:46.788Z,6.60
2018-06-14T04:38:15.182Z,7.33
2018-06-14T04:40:43.624Z,6.90
2018-06-14T04:43:12.004Z,7.67
2018-06-14T04:45:40.153Z,7.10
2018-06-14T04:48:08.514Z,7.03
2018-06-14T04:50:36.950Z,6.90
2018-06-14T04:53:05.172Z,8.20
2018-06-14T04:55:33.488Z,7.63
2018-06-14T04:58:01.590Z,7.17
2018-06-14T05:00:30.005Z,7.70
2018-06-14T05:02:58.310Z,6.93
2018-06-14T05:05:26.414Z,6.87
2018-06-14T05:07:54.817Z,8.10
2018-06-14T05:10:23.153Z,7.50
2018-06-14T05:12:51.449Z,7.93
2018-06-14T05:15:19.826Z,7.30
2018-06-14T05:17:48.175Z,7.43
2018-06-14T05:20:16.259Z,7.37
2018-06-14T05:22:44.305Z,7.50
2018-06-14T05:25:12.650Z,7.87
2018-06-14T05:27:41.040Z,7.77
2018-06-14T05:30:09.443Z,7.77
2018-06-14T05:32:37.522Z,9.98
2018-06-14T05:35:05.867Z,7.93
2018-06-14T05:37:34.225Z,8.53
2018-06-14T05:40:02.538Z,7.63
2018-06-14T05:42:31.044Z,8.13
2018-06-14T05:44:59.327Z,7.73
2018-06-14T05:47:27.406Z,7.83
2018-06-14T05:49:55.438Z,7.67
2018-06-14T05:52:23.816Z,7.97
2018-06-14T05:54:52.867Z,8.47
2018-06-14T05:57:21.222Z,8.17
2018-06-14T05:59:49.311Z,7.23
2018-06-14T06:02:17.644Z,8.43
2018-06-14T06:04:46.049Z,8.20
2018-06-14T06:07:14.138Z,9.08
2018-06-14T06:09:42.515Z,8.10
2018-06-14T06:12:10.873Z,9.13
2018-06-14T06:14:39.276Z,7.63
2018-06-14T06:17:07.605Z,9.35
2018-06-14T06:19:35.966Z,8.30
2018-06-14T06:22:04.369Z,7.93
2018-06-14T06:24:32.730Z,8.20
2018-06-14T06:27:01.375Z,8.67
2018-06-14T06:29:29.499Z,7.67
2018-06-14T06:31:57.825Z,7.67
2018-06-14T06:34:25.889Z,8.10
2018-06-14T06:36:56.477Z,7.30
2018-06-14T06:39:24.902Z,7.23
2018-06-14T06:41:52.971Z,8.95
2018-06-14T06:44:21.072Z,8.20
2018-06-14T06:46:49.170Z,8.47
2018-06-14T06:49:17.517Z,7.43
2018-06-14T06:51:45.862Z,8.20
2018-06-14T06:54:14.262Z,7.93
2018-06-14T06:56:42.639Z,7.17
2018-06-14T06:59:10.789Z,8.03
2018-06-14T07:01:39.131Z,7.80
2018-06-14T07:04:07.495Z,8.00
2018-06-14T07:06:36.765Z,8.00
2018-06-14T07:09:07.030Z,7.17
2018-06-14T07:11:35.436Z,8.27
2018-06-14T07:14:03.797Z,8.43
2018-06-14T07:16:32.171Z,8.37
2018-06-14T07:19:00.561Z,7.50
2018-06-14T07:21:28.940Z,8.00
2018-06-14T07:23:57.292Z,9.95
2018-06-14T07:26:26.812Z,9.08
2018-06-14T07:28:54.059Z,8.50
2018-06-14T07:31:22.465Z,8.93
2018-06-14T07:33:50.806Z,7.93
2018-06-14T07:36:19.244Z,7.63
2018-06-14T07:38:47.314Z,7.83
2018-06-14T07:41:15.730Z,8.00
2018-06-14T07:43:44.084Z,8.70
2018-06-14T07:46:12.186Z,8.00
2018-06-14T07:48:41.574Z,9.30
2018-06-14T07:51:10.020Z,8.50
2018-06-14T07:53:38.453Z,8.17
2018-06-14T07:56:06.859Z,9.90
2018-06-14T07:58:35.236Z,8.40
2018-06-14T08:01:03.620Z,7.70
2018-06-14T08:03:31.932Z,8.63
2018-06-14T08:06:00.086Z,8.53
2018-06-14T08:08:28.527Z,9.40
2018-06-14T08:10:56.897Z,10.13
2018-06-14T08:13:25.290Z,9.35
2018-06-14T08:15:53.629Z,9.83
2018-06-14T08:18:21.750Z,9.43
2018-06-14T08:20:50.098Z,9.30
2018-06-14T08:23:18.468Z,10.20
2018-06-14T08:25:46.810Z,10.60
2018-06-14T08:28:15.158Z,9.30
2018-06-14T08:30:44.582Z,10.08
2018-06-14T08:33:12.985Z,10.67
2018-06-14T08:35:41.092Z,8.97
2018-06-14T08:38:09.679Z,10.57
2018-06-14T08:40:38.096Z,11.03
2018-06-14T08:43:06.536Z,10.50
2018-06-14T08:45:34.873Z,11.00
2018-06-14T08:48:03.279Z,11.40
2018-06-14T08:50:31.390Z,10.83
2018-06-14T08:53:00.680Z,10.00
2018-06-14T08:55:29.020Z,11.30
2018-06-14T08:57:57.468Z,10.47
2018-06-14T09:00:25.797Z,9.80
2018-06-14T09:02:54.191Z,10.55
2018-06-14T09:05:22.622Z,9.10
2018-06-14T09:07:51.837Z,8.68
2018-06-14T09:10:19.961Z,9.53
2018-06-14T09:12:48.642Z,9.05
2018-06-14T09:15:17.001Z,8.47
2018-06-14T09:17:45.352Z,9.58
2018-06-14T09:20:13.476Z,7.42
2018-06-14T09:22:41.846Z,7.27
2018-06-14T09:25:10.166Z,7.93
2018-06-14T09:27:38.581Z,8.65
2018-06-14T09:30:06.962Z,7.57
2018-06-14T09:32:35.306Z,6.30
2018-06-14T09:35:04.698Z,5.60
2018-06-14T09:37:33.063Z,7.23
2018-06-14T09:40:01.497Z,6.57
2018-06-14T09:42:29.903Z,5.78
2018-06-14T09:44:58.243Z,7.08
2018-06-14T09:47:26.737Z,7.40
2018-06-14T09:49:54.844Z,6.28
2018-06-14T09:52:23.234Z,6.25
2018-06-14T09:54:51.598Z,5.40
2018-06-14T09:57:20.372Z,6.05
2018-06-14T09:59:48.773Z,6.10
2018-06-14T10:02:17.181Z,5.60
2018-06-14T10:04:45.618Z,5.85
2018-06-14T10:07:14.021Z,6.55
2018-06-14T10:09:43.211Z,6.42
2018-06-14T10:12:11.598Z,5.53
2018-06-14T10:14:39.985Z,5.92
2018-06-14T10:17:08.349Z,6.20
2018-06-14T10:19:36.796Z,6.03
2018-06-14T10:22:04.960Z,6.20
2018-06-14T10:24:33.067Z,7.05
2018-06-14T10:27:01.802Z,5.80
2018-06-14T10:29:30.166Z,6.75
2018-06-14T10:32:01.011Z,6.72
2018-06-14T10:34:29.417Z,7.45
2018-06-14T10:36:57.893Z,6.72
2018-06-14T10:39:26.017Z,7.05
2018-06-14T10:41:54.519Z,6.83
2018-06-14T10:44:22.916Z,6.50
2018-06-14T10:46:51.290Z,7.50
2018-06-14T10:49:19.737Z,7.28
2018-06-14T10:51:48.162Z,7.03
2018-06-14T10:54:16.263Z,7.33
2018-06-14T10:56:44.669Z,7.33
2018-06-14T10:59:13.011Z,7.42
2018-06-14T11:01:41.120Z,6.95
2018-06-14T11:04:09.542Z,6.47
2018-06-14T11:06:38.738Z,6.35
2018-06-14T11:09:09.192Z,6.72
2018-06-14T11:11:37.527Z,6.62
2018-06-14T11:14:05.935Z,7.17
2018-06-14T11:16:34.117Z,7.03
2018-06-14T11:19:02.264Z,7.78
2018-06-14T11:21:30.685Z,7.75
2018-06-14T11:23:58.759Z,8.40
2018-06-14T11:26:27.627Z,7.85
2018-06-14T11:28:55.987Z,7.30
2018-06-14T11:31:24.394Z,7.30
2018-06-14T11:33:53.461Z,6.60
2018-06-14T11:36:21.800Z,6.33
2018-06-14T11:38:50.150Z,7.78
2018-06-14T11:41:18.526Z,7.03
2018-06-14T11:43:46.882Z,6.95
2018-06-14T11:46:15.634Z,7.97
2018-06-14T11:48:44.024Z,7.92
2018-06-14T11:51:12.398Z,6.33
2018-06-14T11:53:40.759Z,6.58
2018-06-14T11:56:08.864Z,7.28
2018-06-14T11:58:37.298Z,6.62
2018-06-14T12:01:05.375Z,7.95
2018-06-14T12:03:33.522Z,6.42
2018-06-14T12:06:01.913Z,7.30
2018-06-14T12:08:30.477Z,8.27
2018-06-14T12:10:58.876Z,8.18
2018-06-14T12:13:27.247Z,8.03
2018-06-14T12:15:57.588Z,7.10
2018-06-14T12:18:25.739Z,6.08
2018-06-14T12:20:54.094Z,6.60
2018-06-14T12:23:22.464Z,7.63
2018-06-14T12:25:50.867Z,6.20
2018-06-14T12:28:19.266Z,5.83
2018-06-14T12:30:47.704Z,6.90
2018-06-14T12:33:15.786Z,7.10
2018-06-14T12:35:44.186Z,7.17
2018-06-14T12:38:12.601Z,5.58
2018-06-14T12:40:40.748Z,7.07
2018-06-14T12:43:09.112Z,7.00
2018-06-14T12:45:37.545Z,7.03
2018-06-14T12:48:05.952Z,5.75
2018-06-14T12:50:34.310Z,5.28
2018-06-14T12:53:02.680Z,6.83
2018-06-14T12:55:30.792Z,6.17
2018-06-14T12:57:59.138Z,7.08
2018-06-14T13:00:27.467Z,7.30
2018-06-14T13:02:55.908Z,8.00
2018-06-14T13:05:24.323Z,6.80
2018-06-14T13:07:52.684Z,8.08
2018-06-14T13:10:21.162Z,8.33
2018-06-14T13:12:49.473Z,9.63
2018-06-14T13:15:17.853Z,9.20
2018-06-14T13:17:46.224Z,8.38
2018-06-14T13:20:14.575Z,9.00
2018-06-14T13:22:43.784Z,11.20
2018-06-14T13:25:12.162Z,9.75
2018-06-14T13:27:41.591Z,8.70
2018-06-14T13:30:09.856Z,9.53
2018-06-14T13:32:38.358Z,12.80
2018-06-14T13:35:06.721Z,12.33
2018-06-14T13:37:35.406Z,10.70
2018-06-14T13:40:03.885Z,10.13
2018-06-14T13:42:32.482Z,10.15
2018-06-14T13:45:01.518Z,12.20
2018-06-14T13:47:29.742Z,10.65
2018-06-14T13:49:58.353Z,10.93
2018-06-14T13:52:26.452Z,11.33
2018-06-14T13:54:54.874Z,11.35
2018-06-14T13:57:23.232Z,11.20
2018-06-14T13:59:51.686Z,11.25
2018-06-14T14:02:20.433Z,11.78
2018-06-14T14:04:48.832Z,11.25
2018-06-14T14:07:26.410Z,11.60
2018-06-14T14:09:55.459Z,13.22
2018-06-14T14:12:23.955Z,13.75
2018-06-14T14:14:52.373Z,12.53
2018-06-14T14:17:20.798Z,12.05
2018-06-14T14:19:49.217Z,11.40
2018-06-14T14:22:17.676Z,11.88
2018-06-14T14:24:46.058Z,13.55
2018-06-14T14:27:14.438Z,12.93
2018-06-14T14:29:42.886Z,12.58
2018-06-14T14:32:10.962Z,11.97
2018-06-14T14:34:39.400Z,11.97
2018-06-14T14:37:07.908Z,12.07
2018-06-14T14:39:36.257Z,14.15
2018-06-14T14:42:04.646Z,13.48
2018-06-14T14:44:33.090Z,12.98
2018-06-14T14:47:01.452Z,12.58
2018-06-14T14:49:29.825Z,11.80
2018-06-14T14:51:58.249Z,12.73
2018-06-14T14:54:26.653Z,13.70
2018-06-14T14:56:54.757Z,15.32
2018-06-14T14:59:23.144Z,12.45
2018-06-14T15:01:51.528Z,12.28
2018-06-14T15:04:19.862Z,13.18
2018-06-14T15:06:48.000Z,12.13
2018-06-14T15:09:16.406Z,12.78
2018-06-14T15:11:44.795Z,14.65
2018-06-14T15:14:12.937Z,14.65
2018-06-14T15:16:41.336Z,12.68
2018-06-14T15:19:09.634Z,12.00
2018-06-14T15:21:37.756Z,11.33
2018-06-14T15:24:06.173Z,11.65
2018-06-14T15:26:34.639Z,12.10
2018-06-14T15:29:03.019Z,11.57
2018-06-14T15:31:31.463Z,12.73
2018-06-14T15:33:59.526Z,13.68
2018-06-14T15:36:27.958Z,12.63
2018-06-14T15:38:56.392Z,11.15
2018-06-14T15:41:24.828Z,12.33
2018-06-14T15:43:53.244Z,11.55
2018-06-14T15:46:21.635Z,11.45
2018-06-14T15:48:50.073Z,10.90
2018-06-14T15:51:18.431Z,10.50
2018-06-14T15:53:46.793Z,11.38
2018-06-14T15:56:33.742Z,10.80
2018-06-14T15:59:03.205Z,10.95
2018-06-14T16:01:31.597Z,11.05
2018-06-14T16:04:00.021Z,10.98
2018-06-14T16:06:28.115Z,12.47
2018-06-14T16:08:56.505Z,10.53
2018-06-14T16:11:24.930Z,10.72
2018-06-14T16:13:53.306Z,9.75
2018-06-14T16:16:21.710Z,10.25
2018-06-14T16:18:49.866Z,9.90
2018-06-14T16:21:18.254Z,9.18
2018-06-14T16:23:46.600Z,10.15
2018-06-14T16:26:15.017Z,9.78
2018-06-14T16:28:43.166Z,10.48
2018-06-14T16:31:11.572Z,10.50
2018-06-14T16:33:39.737Z,10.32
2018-06-14T16:36:08.112Z,9.20
2018-06-14T16:38:36.559Z,9.53
2018-06-14T16:41:04.964Z,9.57
2018-06-14T16:43:33.387Z,9.55
2018-06-14T16:46:01.804Z,9.53
2018-06-14T16:48:30.131Z,9.30
2018-06-14T16:50:58.219Z,10.08
2018-06-14T16:53:26.731Z,10.13
2018-06-14T16:55:55.169Z,9.97
2018-06-14T16:58:23.290Z,9.18
2018-06-14T17:00:51.652Z,10.50
2018-06-14T17:03:20.105Z,10.03
2018-06-14T17:05:48.249Z,11.28
2018-06-14T17:08:16.607Z,10.63
2018-06-14T17:10:45.057Z,12.93
2018-06-14T17:13:13.463Z,10.85
2018-06-14T17:15:41.866Z,9.88
2018-06-14T17:18:10.328Z,11.08
2018-06-14T17:20:38.840Z,12.53
2018-06-14T17:23:07.242Z,10.98
2018-06-14T17:25:35.482Z,11.10
2018-06-14T17:28:03.835Z,10.25
2018-06-14T17:30:32.207Z,9.83
2018-06-14T17:33:00.626Z,10.93
2018-06-14T17:35:28.974Z,10.43
2018-06-14T17:37:57.453Z,10.70
2018-06-14T17:40:25.844Z,12.50
2018-06-14T17:42:54.250Z,10.32
2018-06-14T17:45:22.591Z,9.88
2018-06-14T17:47:51.040Z,11.33
2018-06-14T17:50:19.339Z,10.15
2018-06-14T17:52:47.780Z,11.87
2018-06-14T17:55:16.179Z,11.67
2018-06-14T17:57:44.632Z,12.00
2018-06-14T18:00:13.077Z,12.27
2018-06-14T18:02:41.557Z,13.17
2018-06-14T18:05:10.149Z,12.37
2018-06-14T18:07:38.988Z,12.33
2018-06-14T18:10:06.637Z,12.80
2018-06-14T18:12:34.743Z,12.30
2018-06-14T18:15:03.203Z,13.37
2018-06-14T18:17:31.358Z,14.33
2018-06-14T18:19:59.763Z,14.00
2018-06-14T18:22:28.107Z,14.33
2018-06-14T18:24:56.499Z,14.07
2018-06-14T18:27:24.877Z,17.07
2018-06-14T18:29:53.044Z,15.23
2018-06-14T18:32:21.396Z,14.83
2018-06-14T18:34:49.770Z,14.50
2018-06-14T18:37:18.150Z,15.40
2018-06-14T18:39:46.601Z,16.23
2018-06-14T18:42:14.972Z,15.67
2018-06-14T18:44:43.035Z,15.33
2018-06-14T18:47:11.194Z,15.23
2018-06-14T18:49:39.338Z,16.83
2018-06-14T18:52:07.705Z,16.40
2018-06-14T18:54:36.143Z,16.83
2018-06-14T18:57:06.529Z,16.17
2018-06-14T18:59:34.871Z,15.27
2018-06-14T19:02:03.325Z,15.17
2018-06-14T19:04:31.414Z,14.97
2018-06-14T19:06:59.817Z,14.00
2018-06-14T19:09:28.258Z,14.90
2018-06-14T19:11:56.360Z,15.10
2018-06-14T19:14:24.746Z,14.70
2018-06-14T19:16:53.184Z,14.20
2018-06-14T19:19:21.299Z,14.80
2018-06-14T19:21:49.679Z,14.50
2018-06-14T19:24:18.098Z,13.87
2018-06-14T19:26:46.444Z,13.67
2018-06-14T19:29:14.873Z,14.70
2018-06-14T19:31:43.344Z,14.60
2018-06-14T19:34:11.766Z,14.60
2018-06-14T19:36:40.179Z,15.23
2018-06-14T19:39:09.679Z,17.30
2018-06-14T19:41:38.058Z,14.13
2018-06-14T19:44:06.522Z,14.77
2018-06-14T19:46:34.957Z,15.00
2018-06-14T19:49:03.305Z,14.23
2018-06-14T19:51:31.679Z,15.27
2018-06-14T19:54:00.095Z,16.20
2018-06-14T19:56:28.474Z,15.93
2018-06-14T19:58:56.575Z,14.87
2018-06-14T20:01:25.082Z,15.50
2018-06-14T20:04:01.821Z,15.43
2018-06-14T20:06:29.970Z,16.40
2018-06-14T20:08:58.388Z,16.33
2018-06-14T20:11:26.794Z,16.53
2018-06-14T20:13:55.226Z,17.80
2018-06-14T20:16:23.298Z,16.73
2018-06-14T20:18:51.394Z,17.20
2018-06-14T20:21:19.825Z,16.67
2018-06-14T20:23:48.186Z,17.67
2018-06-14T20:26:16.638Z,18.13
2018-06-14T20:28:45.072Z,17.97
2018-06-14T20:31:13.494Z,18.03
2018-06-14T20:33:41.896Z,22.58
2018-06-14T20:36:10.340Z,18.67
2018-06-14T20:38:38.423Z,18.83
2018-06-14T20:41:06.628Z,18.52
2018-06-14T20:43:35.150Z,19.33
2018-06-14T20:46:03.532Z,19.70
2018-06-14T20:48:31.695Z,19.77
2018-06-14T20:51:00.162Z,20.93
2018-06-14T20:53:28.525Z,24.98
2018-06-14T20:55:56.960Z,25.12
2018-06-14T20:58:25.366Z,20.37
2018-06-14T21:00:53.455Z,25.32
2018-06-14T21:03:21.825Z,21.30
2018-06-14T21:05:50.233Z,21.37
2018-06-14T21:08:18.637Z,20.07
2018-06-14T21:10:47.001Z,21.70
2018-06-14T21:13:15.391Z,22.17
2018-06-14T21:15:43.778Z,21.87
2018-06-14T21:18:12.151Z,21.27
2018-06-14T21:20:40.571Z,21.67
2018-06-14T21:23:08.918Z,22.47
2018-06-14T21:25:37.007Z,22.93
2018-06-14T21:28:05.175Z,22.40
2018-06-14T21:30:33.249Z,23.33
2018-06-14T21:33:01.352Z,22.30
2018-06-14T21:35:29.754Z,23.60
2018-06-14T21:37:58.134Z,23.20
2018-06-14T21:40:26.687Z,23.43
2018-06-14T21:42:55.062Z,24.07
2018-06-14T21:45:23.448Z,25.23
2018-06-14T21:47:51.780Z,24.13
2018-06-14T21:50:20.154Z,22.27
2018-06-14T21:52:48.544Z,30.40
2018-06-14T21:55:16.637Z,27.63
2018-06-14T21:57:44.773Z,24.10
2018-06-14T22:00:13.105Z,23.97
2018-06-14T22:03:01.941Z,24.90
2018-06-14T22:05:30.017Z,25.97
2018-06-14T22:07:58.119Z,23.47
2018-06-14T22:10:26.525Z,23.33
2018-06-14T22:12:54.892Z,24.87
2018-06-14T22:15:23.273Z,29.87
2018-06-14T22:17:51.712Z,24.97
2018-06-14T22:20:19.784Z,24.50
2018-06-14T22:22:47.905Z,24.67
2018-06-14T22:25:16.344Z,25.13
2018-06-14T22:27:44.444Z,29.15
2018-06-14T22:30:12.789Z,26.30
2018-06-14T22:32:40.894Z,24.37
2018-06-14T22:35:30.244Z,24.43
2018-06-14T22:37:58.435Z,24.90
2018-06-14T22:40:26.753Z,24.37
2018-06-14T22:42:55.072Z,23.30
2018-06-14T22:45:23.444Z,23.07
2018-06-14T22:47:51.578Z,22.17
2018-06-14T22:50:56.843Z,23.67
2018-06-14T22:53:24.920Z,22.83
2018-06-14T22:55:53.041Z,22.53
2018-06-14T22:58:21.420Z,21.60
2018-06-14T23:01:26.003Z,22.33
2018-06-14T23:03:54.140Z,22.37
2018-06-14T23:06:22.500Z,24.13
2018-06-14T23:08:50.573Z,21.80
2018-06-14T23:11:23.133Z,22.63
2018-06-14T23:13:51.913Z,23.10
2018-06-14T23:16:20.335Z,21.97
2018-06-14T23:18:48.737Z,23.43
2018-06-14T23:21:17.072Z,22.27
2018-06-14T23:23:45.418Z,21.43
2018-06-14T23:26:13.520Z,22.97
2018-06-14T23:28:41.938Z,21.17
2018-06-14T23:31:10.302Z,20.37
2018-06-14T23:33:38.750Z,20.77
2018-06-14T23:36:07.098Z,19.47
2018-06-14T23:38:35.228Z,20.07
2018-06-14T23:41:03.670Z,19.70
2018-06-14T23:43:32.070Z,20.30
2018-06-14T23:46:00.145Z,20.03
2018-06-14T23:48:28.536Z,19.60
2018-06-14T23:50:56.893Z,19.33
2018-06-14T23:53:25.238Z,19.90
2018-06-14T23:55:53.391Z,20.37
2018-06-14T23:58:21.733Z,20.57
